SHT2L EGLL-EGCC
Flight info
| Callsign | SHT2L |
|---|---|
| Flight time | 0h 35m |
| Altitude | 18000 |
| Route | UMLAT T418 WELIN T420 ELVOS |
| Aircraft | A320/M-SDE3FGHIRWY/LB1 |
Departure
| Time | 2026-05-06 07:26 |
|---|---|
| Airport | London Heathrow Airport (EGLL) |
Arrival
| Time | 2026-05-06 08:01 |
|---|---|
| Airport | Manchester Airport (EGCC) |
| Time | Latitude | Longitude | Altitude | Speed | Heading |
|---|---|---|---|---|---|
| 2026-05-06 06:33 | 51.47233 | -0.48585 | 86 ft | 0 kts | 270° |
| 2026-05-06 07:17 | 51.47233 | -0.48566 | 89 ft | 4 kts | 270° |
| 2026-05-06 07:18 | 51.47233 | -0.48524 | 88 ft | 3 kts | 270° |
| 2026-05-06 07:18 | 51.47235 | -0.48491 | 91 ft | 4 kts | 235° |
| 2026-05-06 07:18 | 51.47254 | -0.48473 | 86 ft | 3 kts | 180° |
| 2026-05-06 07:18 | 51.47272 | -0.48473 | 86 ft | 0 kts | 180° |
| 2026-05-06 07:22 | 51.47248 | -0.48473 | 88 ft | 6 kts | 180° |
| 2026-05-06 07:22 | 51.47183 | -0.48473 | 88 ft | 12 kts | 180° |
| 2026-05-06 07:22 | 51.47086 | -0.48471 | 90 ft | 15 kts | 179° |
| 2026-05-06 07:22 | 51.46970 | -0.48470 | 86 ft | 17 kts | 180° |
| 2026-05-06 07:23 | 51.46935 | -0.48470 | 86 ft | 0 kts | 179° |
| 2026-05-06 07:23 | 51.46926 | -0.48470 | 89 ft | 5 kts | 179° |
| 2026-05-06 07:23 | 51.46874 | -0.48469 | 90 ft | 10 kts | 180° |
| 2026-05-06 07:24 | 51.46787 | -0.48469 | 90 ft | 14 kts | 180° |
| 2026-05-06 07:24 | 51.46679 | -0.48468 | 88 ft | 17 kts | 180° |
| 2026-05-06 07:24 | 51.46552 | -0.48467 | 89 ft | 19 kts | 179° |
| 2026-05-06 07:24 | 51.46482 | -0.48435 | 90 ft | 9 kts | 114° |
| 2026-05-06 07:25 | 51.46480 | -0.48323 | 88 ft | 11 kts | 89° |
| 2026-05-06 07:25 | 51.46480 | -0.48134 | 88 ft | 34 kts | 90° |
| 2026-05-06 07:25 | 51.46482 | -0.47334 | 87 ft | 105 kts | 89° |
| 2026-05-06 07:25 | 51.46487 | -0.45873 | 86 ft | 155 kts | 89° |
| 2026-05-06 07:26 | 51.46494 | -0.44055 | 495 ft | 166 kts | 88° |
| 2026-05-06 07:26 | 51.46515 | -0.42174 | 1205 ft | 166 kts | 84° |
| 2026-05-06 07:26 | 51.46870 | -0.40486 | 1828 ft | 166 kts | 51° |
| 2026-05-06 07:26 | 51.47678 | -0.39010 | 2167 ft | 187 kts | 46° |
| 2026-05-06 07:27 | 51.48582 | -0.37343 | 2470 ft | 211 kts | 48° |
| 2026-05-06 07:27 | 51.49594 | -0.35439 | 2912 ft | 234 kts | 49° |
| 2026-05-06 07:27 | 51.50664 | -0.33398 | 3743 ft | 242 kts | 49° |
| 2026-05-06 07:27 | 51.51755 | -0.31288 | 4622 ft | 248 kts | 51° |
| 2026-05-06 07:28 | 51.52619 | -0.28829 | 5445 ft | 259 kts | 66° |
| 2026-05-06 07:28 | 51.53167 | -0.26029 | 6274 ft | 267 kts | 73° |
| 2026-05-06 07:28 | 51.55424 | -0.21592 | 7814 ft | 269 kts | 14° |
| 2026-05-06 07:29 | 51.57285 | -0.21406 | 8621 ft | 271 kts | 352° |
| 2026-05-06 07:29 | 51.59140 | -0.22002 | 9452 ft | 273 kts | 344° |
| 2026-05-06 07:29 | 51.60977 | -0.22862 | 10243 ft | 277 kts | 339° |
| 2026-05-06 07:29 | 51.62677 | -0.24361 | 10979 ft | 281 kts | 323° |
| 2026-05-06 07:30 | 51.64327 | -0.26278 | 11279 ft | 304 kts | 326° |
| 2026-05-06 07:30 | 51.66132 | -0.28212 | 11543 ft | 324 kts | 324° |
| 2026-05-06 07:30 | 51.67944 | -0.30435 | 12104 ft | 332 kts | 323° |
| 2026-05-06 07:30 | 51.69799 | -0.32713 | 12768 ft | 336 kts | 322° |
| 2026-05-06 07:31 | 51.71667 | -0.35016 | 13448 ft | 340 kts | 322° |
| 2026-05-06 07:31 | 51.73554 | -0.37354 | 14128 ft | 344 kts | 322° |
| 2026-05-06 07:31 | 51.75457 | -0.39732 | 14785 ft | 347 kts | 322° |
| 2026-05-06 07:31 | 51.77369 | -0.42134 | 15400 ft | 350 kts | 321° |
| 2026-05-06 07:32 | 51.79296 | -0.44567 | 16031 ft | 353 kts | 321° |
| 2026-05-06 07:32 | 51.81238 | -0.47024 | 16630 ft | 356 kts | 321° |
| 2026-05-06 07:32 | 51.83200 | -0.49510 | 17210 ft | 360 kts | 321° |
| 2026-05-06 07:32 | 51.85180 | -0.52017 | 17763 ft | 363 kts | 321° |
| 2026-05-06 07:33 | 51.87176 | -0.54541 | 17954 ft | 364 kts | 321° |
| 2026-05-06 07:33 | 51.89196 | -0.57097 | 17989 ft | 371 kts | 321° |
| 2026-05-06 07:33 | 51.91236 | -0.59685 | 17993 ft | 373 kts | 321° |
| 2026-05-06 07:33 | 51.93282 | -0.62279 | 17994 ft | 374 kts | 321° |
| 2026-05-06 07:34 | 51.95307 | -0.64852 | 18001 ft | 374 kts | 321° |
| 2026-05-06 07:34 | 51.97352 | -0.67461 | 18004 ft | 374 kts | 321° |
| 2026-05-06 07:34 | 51.99403 | -0.70081 | 18002 ft | 373 kts | 321° |
| 2026-05-06 07:34 | 52.01521 | -0.72526 | 17993 ft | 374 kts | 328° |
| 2026-05-06 07:35 | 52.03882 | -0.74329 | 18002 ft | 376 kts | 339° |
| 2026-05-06 07:35 | 52.06376 | -0.75630 | 18006 ft | 377 kts | 341° |
| 2026-05-06 07:35 | 52.08877 | -0.76924 | 17994 ft | 377 kts | 340° |
| 2026-05-06 07:35 | 52.11353 | -0.78213 | 18001 ft | 377 kts | 340° |
| 2026-05-06 07:36 | 52.13855 | -0.79521 | 17999 ft | 377 kts | 340° |
| 2026-05-06 07:36 | 52.16350 | -0.80831 | 18006 ft | 377 kts | 340° |
| 2026-05-06 07:36 | 52.18855 | -0.82145 | 18002 ft | 377 kts | 340° |
| 2026-05-06 07:36 | 52.21353 | -0.83458 | 18015 ft | 377 kts | 340° |
| 2026-05-06 07:37 | 52.23849 | -0.84810 | 18007 ft | 377 kts | 337° |
| 2026-05-06 07:37 | 52.26192 | -0.86680 | 18006 ft | 375 kts | 327° |
| 2026-05-06 07:37 | 52.28423 | -0.88909 | 18008 ft | 375 kts | 327° |
| 2026-05-06 07:37 | 52.30650 | -0.91126 | 18015 ft | 375 kts | 327° |
| 2026-05-06 07:38 | 52.32880 | -0.93340 | 18010 ft | 375 kts | 327° |
| 2026-05-06 07:38 | 52.35111 | -0.95554 | 18018 ft | 375 kts | 327° |
| 2026-05-06 07:38 | 52.37338 | -0.97766 | 18016 ft | 375 kts | 327° |
| 2026-05-06 07:38 | 52.39541 | -0.99959 | 18017 ft | 375 kts | 327° |
| 2026-05-06 07:39 | 52.41044 | -1.01460 | 18031 ft | 375 kts | 327° |
| 2026-05-06 07:39 | 52.43992 | -1.04416 | 18032 ft | 375 kts | 327° |
| 2026-05-06 07:39 | 52.46217 | -1.06648 | 18033 ft | 375 kts | 327° |
| 2026-05-06 07:39 | 52.47725 | -1.08159 | 18032 ft | 375 kts | 327° |
| 2026-05-06 07:40 | 52.49922 | -1.10368 | 18036 ft | 375 kts | 327° |
| 2026-05-06 07:40 | 52.52142 | -1.12607 | 18038 ft | 375 kts | 327° |
| 2026-05-06 07:40 | 52.54363 | -1.14851 | 18039 ft | 374 kts | 327° |
| 2026-05-06 07:40 | 52.56589 | -1.17095 | 18041 ft | 375 kts | 327° |
| 2026-05-06 07:41 | 52.58817 | -1.19337 | 18046 ft | 375 kts | 327° |
| 2026-05-06 07:41 | 52.61047 | -1.21582 | 18050 ft | 375 kts | 327° |
| 2026-05-06 07:41 | 52.63272 | -1.23828 | 18053 ft | 375 kts | 327° |
| 2026-05-06 07:41 | 52.65492 | -1.26080 | 18054 ft | 375 kts | 327° |
| 2026-05-06 07:42 | 52.67717 | -1.28340 | 18057 ft | 375 kts | 327° |
| 2026-05-06 07:42 | 52.69940 | -1.30601 | 18060 ft | 375 kts | 327° |
| 2026-05-06 07:42 | 52.72158 | -1.32853 | 18066 ft | 375 kts | 327° |
| 2026-05-06 07:42 | 52.74360 | -1.35088 | 18067 ft | 375 kts | 327° |
| 2026-05-06 07:43 | 52.76586 | -1.37354 | 18065 ft | 375 kts | 327° |
| 2026-05-06 07:43 | 52.78806 | -1.39620 | 18068 ft | 375 kts | 327° |
| 2026-05-06 07:43 | 52.81017 | -1.41882 | 17932 ft | 368 kts | 327° |
| 2026-05-06 07:43 | 52.83134 | -1.44051 | 17683 ft | 357 kts | 327° |
| 2026-05-06 07:44 | 52.85216 | -1.46184 | 17422 ft | 347 kts | 327° |
| 2026-05-06 07:44 | 52.87252 | -1.48270 | 17004 ft | 342 kts | 327° |
| 2026-05-06 07:44 | 52.89268 | -1.50341 | 16553 ft | 339 kts | 327° |
| 2026-05-06 07:44 | 52.91268 | -1.52401 | 16104 ft | 336 kts | 327° |
| 2026-05-06 07:45 | 52.93260 | -1.54454 | 15648 ft | 334 kts | 327° |
| 2026-05-06 07:45 | 52.95220 | -1.56477 | 15203 ft | 331 kts | 327° |
| 2026-05-06 07:45 | 52.97174 | -1.58491 | 14756 ft | 329 kts | 327° |
| 2026-05-06 07:45 | 52.99087 | -1.60464 | 14321 ft | 327 kts | 327° |
| 2026-05-06 07:46 | 53.01033 | -1.62473 | 13878 ft | 324 kts | 327° |
| 2026-05-06 07:46 | 53.02943 | -1.64445 | 13435 ft | 322 kts | 327° |
| 2026-05-06 07:46 | 53.04826 | -1.66466 | 12998 ft | 320 kts | 322° |
| 2026-05-06 07:46 | 53.06422 | -1.68943 | 12561 ft | 318 kts | 311° |
| 2026-05-06 07:47 | 53.07859 | -1.71733 | 12207 ft | 314 kts | 310° |
| 2026-05-06 07:47 | 53.09254 | -1.74449 | 12080 ft | 302 kts | 310° |
| 2026-05-06 07:47 | 53.10599 | -1.77067 | 11940 ft | 293 kts | 310° |
| 2026-05-06 07:47 | 53.11917 | -1.79630 | 11594 ft | 291 kts | 311° |
| 2026-05-06 07:48 | 53.13213 | -1.82144 | 11314 ft | 287 kts | 311° |
| 2026-05-06 07:48 | 53.14504 | -1.84650 | 10783 ft | 283 kts | 311° |
| 2026-05-06 07:48 | 53.15784 | -1.87139 | 10145 ft | 281 kts | 311° |
| 2026-05-06 07:48 | 53.17052 | -1.89600 | 9606 ft | 276 kts | 311° |
| 2026-05-06 07:49 | 53.18289 | -1.92012 | 9141 ft | 272 kts | 311° |
| 2026-05-06 07:49 | 53.19513 | -1.94404 | 8673 ft | 269 kts | 311° |
| 2026-05-06 07:49 | 53.20731 | -1.96782 | 8224 ft | 271 kts | 312° |
| 2026-05-06 07:49 | 53.21940 | -1.99143 | 8067 ft | 263 kts | 312° |
| 2026-05-06 07:50 | 53.22996 | -2.01522 | 7941 ft | 256 kts | 298° |
| 2026-05-06 07:50 | 53.23393 | -2.04458 | 7817 ft | 267 kts | 270° |
| 2026-05-06 07:50 | 53.23180 | -2.07516 | 7694 ft | 264 kts | 262° |
| 2026-05-06 07:50 | 53.22787 | -2.10505 | 7563 ft | 260 kts | 258° |
| 2026-05-06 07:51 | 53.22340 | -2.13399 | 7370 ft | 256 kts | 257° |
| 2026-05-06 07:51 | 53.21893 | -2.16240 | 7201 ft | 250 kts | 257° |
| 2026-05-06 07:51 | 53.21452 | -2.19017 | 7048 ft | 245 kts | 257° |
| 2026-05-06 07:51 | 53.21016 | -2.21746 | 6900 ft | 242 kts | 257° |
| 2026-05-06 07:52 | 53.20577 | -2.24457 | 6731 ft | 242 kts | 256° |
| 2026-05-06 07:52 | 53.20073 | -2.27136 | 6561 ft | 242 kts | 253° |
| 2026-05-06 07:52 | 53.19545 | -2.29765 | 6388 ft | 241 kts | 253° |
| 2026-05-06 07:52 | 53.19008 | -2.32421 | 6209 ft | 240 kts | 253° |
| 2026-05-06 07:53 | 53.18476 | -2.35060 | 6034 ft | 240 kts | 253° |
| 2026-05-06 07:53 | 53.17945 | -2.37675 | 5867 ft | 234 kts | 253° |
| 2026-05-06 07:53 | 53.17426 | -2.40232 | 5667 ft | 229 kts | 253° |
| 2026-05-06 07:53 | 53.16917 | -2.42733 | 5477 ft | 227 kts | 253° |
| 2026-05-06 07:54 | 53.16408 | -2.45210 | 5277 ft | 225 kts | 253° |
| 2026-05-06 07:54 | 53.15900 | -2.47695 | 5071 ft | 226 kts | 253° |
| 2026-05-06 07:54 | 53.15396 | -2.50150 | 4842 ft | 227 kts | 253° |
| 2026-05-06 07:54 | 53.14935 | -2.52652 | 4571 ft | 224 kts | 265° |
| 2026-05-06 07:55 | 53.15062 | -2.55174 | 4423 ft | 218 kts | 293° |
| 2026-05-06 07:55 | 53.15827 | -2.57252 | 4299 ft | 207 kts | 319° |
| 2026-05-06 07:55 | 53.17023 | -2.58508 | 4194 ft | 202 kts | 344° |
| 2026-05-06 07:55 | 53.18390 | -2.58775 | 4057 ft | 197 kts | 9° |
| 2026-05-06 07:56 | 53.19694 | -2.58081 | 3967 ft | 196 kts | 30° |
| 2026-05-06 07:56 | 53.20743 | -2.56649 | 3916 ft | 197 kts | 50° |
| 2026-05-06 07:56 | 53.21613 | -2.54867 | 3743 ft | 196 kts | 50° |
| 2026-05-06 07:56 | 53.22473 | -2.53106 | 3504 ft | 196 kts | 50° |
| 2026-05-06 07:57 | 53.23328 | -2.51358 | 3241 ft | 197 kts | 49° |
| 2026-05-06 07:57 | 53.24188 | -2.49596 | 2985 ft | 192 kts | 50° |
| 2026-05-06 07:57 | 53.25013 | -2.47903 | 2730 ft | 182 kts | 50° |
| 2026-05-06 07:57 | 53.25767 | -2.46357 | 2502 ft | 163 kts | 49° |
| 2026-05-06 07:58 | 53.26447 | -2.44960 | 2299 ft | 148 kts | 49° |
| 2026-05-06 07:58 | 53.27066 | -2.43689 | 2110 ft | 136 kts | 49° |
| 2026-05-06 07:58 | 53.27659 | -2.42473 | 1926 ft | 133 kts | 49° |
| 2026-05-06 07:58 | 53.28242 | -2.41275 | 1742 ft | 133 kts | 49° |
| 2026-05-06 07:59 | 53.28826 | -2.40076 | 1573 ft | 133 kts | 49° |
| 2026-05-06 07:59 | 53.29415 | -2.38864 | 1394 ft | 135 kts | 49° |
| 2026-05-06 07:59 | 53.30005 | -2.37649 | 1215 ft | 134 kts | 52° |
| 2026-05-06 07:59 | 53.30593 | -2.36439 | 1035 ft | 134 kts | 50° |
| 2026-05-06 08:00 | 53.31177 | -2.35227 | 857 ft | 134 kts | 50° |
| 2026-05-06 08:00 | 53.31765 | -2.34016 | 673 ft | 134 kts | 50° |
| 2026-05-06 08:00 | 53.32345 | -2.32810 | 525 ft | 135 kts | 50° |
| 2026-05-06 08:00 | 53.32947 | -2.31582 | 315 ft | 134 kts | 50° |
| 2026-05-06 08:01 | 53.33522 | -2.30394 | 208 ft | 127 kts | 51° |
| 2026-05-06 08:01 | 53.33999 | -2.29409 | 208 ft | 93 kts | 51° |
| 2026-05-06 08:01 | 53.34332 | -2.28718 | 215 ft | 55 kts | 51° |
| 2026-05-06 08:01 | 53.34503 | -2.28372 | 223 ft | 28 kts | 45° |
| 2026-05-06 08:02 | 53.34651 | -2.28206 | 233 ft | 25 kts | 23° |
| 2026-05-06 08:02 | 53.34768 | -2.28126 | 238 ft | 13 kts | 21° |
| 2026-05-06 08:02 | 53.34866 | -2.28060 | 238 ft | 18 kts | 25° |
| 2026-05-06 08:02 | 53.34952 | -2.27904 | 238 ft | 19 kts | 51° |
| 2026-05-06 08:03 | 53.35040 | -2.27724 | 241 ft | 20 kts | 51° |
| 2026-05-06 08:03 | 53.35124 | -2.27548 | 245 ft | 20 kts | 51° |
| 2026-05-06 08:03 | 53.35211 | -2.27369 | 250 ft | 20 kts | 51° |
| 2026-05-06 08:03 | 53.35297 | -2.27209 | 253 ft | 17 kts | 30° |
| 2026-05-06 08:04 | 53.35399 | -2.27226 | 259 ft | 16 kts | 324° |
| 2026-05-06 08:04 | 53.35484 | -2.27340 | 262 ft | 16 kts | 321° |
| 2026-05-06 08:04 | 53.35572 | -2.27457 | 256 ft | 18 kts | 321° |
| 2026-05-06 08:04 | 53.35666 | -2.27585 | 247 ft | 17 kts | 320° |
| 2026-05-06 08:05 | 53.35777 | -2.27672 | 247 ft | 17 kts | 329° |
| 2026-05-06 08:05 | 53.35853 | -2.27811 | 247 ft | 15 kts | 311° |
| 2026-05-06 08:05 | 53.35937 | -2.27842 | 247 ft | 15 kts | 5° |
| 2026-05-06 08:05 | 53.36028 | -2.27939 | 247 ft | 18 kts | 315° |
| 2026-05-06 08:06 | 53.36116 | -2.28085 | 247 ft | 18 kts | 315° |
| 2026-05-06 08:06 | 53.36207 | -2.28238 | 247 ft | 18 kts | 314° |
| 2026-05-06 08:06 | 53.36288 | -2.28375 | 247 ft | 17 kts | 314° |
| 2026-05-06 08:06 | 53.36365 | -2.28477 | 247 ft | 13 kts | 348° |
| 2026-05-06 08:07 | 53.36450 | -2.28538 | 247 ft | 14 kts | 316° |
| 2026-05-06 08:07 | 53.36522 | -2.28662 | 247 ft | 16 kts | 315° |
| 2026-05-06 08:07 | 53.36590 | -2.28811 | 247 ft | 17 kts | 297° |
| 2026-05-06 08:07 | 53.36670 | -2.28960 | 247 ft | 18 kts | 314° |
| 2026-05-06 08:08 | 53.36732 | -2.29063 | 247 ft | 9 kts | 317° |
| 2026-05-06 08:08 | 53.36793 | -2.29058 | 247 ft | 10 kts | 17° |
| 2026-05-06 08:08 | 53.36854 | -2.29009 | 247 ft | 9 kts | 39° |
| 2026-05-06 08:08 | 53.36873 | -2.28952 | 247 ft | 5 kts | 102° |
| 2026-05-06 08:09 | 53.36847 | -2.28901 | 247 ft | 4 kts | 135° |
| 2026-05-06 08:09 | 53.36837 | -2.28885 | 247 ft | 1 kts | 135° |
| 2026-05-06 08:09 | 53.36835 | -2.28882 | 247 ft | 0 kts | 135° |